Salt Lake City, Utah
Traffic Map
Current Weather Conditions
Salt Lake City, Utah
Overcast
Overcast
49°
Feels Like: 42°
Wind Chill: 42° Ceiling: 11000
Heat Index: 49° Visibility: 10mi
Dew Point: 24° Wind: 22mph
Humidity: 38% Direction: 180° (S)
Pressure: 29.83in Gusts: 31mph
Raw Report DataKSLC 221553Z 18019G27KT 10SM SCT075 OVC110 09/M04 A2983 RMK AO2 PK WND 19027/1508 SLP095 VIRGA N-NE AND SW-W T00941044
Traffic Incident Summary
Active as of:
Severity:
Category:
InformationThere was an issue retrieving the traffic information for this location. Please try a different location or try again shortly.
Advertisements
Track Severe Weather on mobile